createdAt,value
2022-10-05T00:01:23.506Z,10.68
2022-10-05T00:03:51.079Z,10.72
2022-10-05T00:06:17.230Z,10.72
2022-10-05T00:08:43.938Z,10.71
2022-10-05T00:11:14.271Z,10.77
2022-10-05T00:13:40.861Z,10.76
2022-10-05T00:16:19.267Z,10.81
2022-10-05T00:18:49.278Z,10.76
2022-10-05T00:21:24.415Z,10.77
2022-10-05T00:23:53.271Z,10.79
2022-10-05T00:26:22.773Z,10.77
2022-10-05T00:28:49.681Z,10.82
2022-10-05T00:31:22.359Z,10.76
2022-10-05T00:33:50.726Z,10.77
2022-10-05T00:36:16.970Z,10.75
2022-10-05T00:38:44.903Z,10.72
2022-10-05T00:41:25.355Z,10.60
2022-10-05T00:44:22.974Z,10.71
2022-10-05T00:47:15.920Z,10.82
2022-10-05T00:50:13.046Z,10.98
2022-10-05T00:53:06.953Z,11.08
2022-10-05T00:56:01.182Z,11.17
2022-10-05T00:58:41.468Z,11.19
2022-10-05T01:01:07.589Z,11.24
2022-10-05T01:03:49.117Z,11.25
2022-10-05T01:06:36.819Z,11.29
2022-10-05T01:09:09.487Z,11.32
2022-10-05T01:11:49.305Z,11.41
2022-10-05T01:14:20.966Z,11.48
2022-10-05T01:16:54.177Z,11.47
2022-10-05T01:19:31.172Z,11.47
2022-10-05T01:22:13.333Z,11.48
2022-10-05T01:24:42.858Z,11.53
2022-10-05T01:27:46.421Z,11.49
2022-10-05T01:30:14.278Z,11.47
2022-10-05T01:33:23.606Z,11.49
2022-10-05T01:36:05.342Z,11.44
2022-10-05T01:39:02.543Z,11.43
2022-10-05T01:41:39.706Z,11.38
2022-10-05T01:44:14.184Z,11.39
2022-10-05T01:46:56.417Z,11.31
2022-10-05T01:49:46.929Z,11.31
2022-10-05T01:53:06.097Z,11.31
2022-10-05T01:55:47.631Z,11.31
2022-10-05T01:58:40.446Z,11.24
2022-10-05T02:01:16.775Z,11.18
2022-10-05T02:03:52.698Z,11.17
2022-10-05T02:06:31.519Z,11.23
2022-10-05T02:09:04.527Z,11.23
2022-10-05T02:11:33.119Z,11.25
2022-10-05T02:14:06.854Z,11.24
2022-10-05T02:16:39.142Z,11.22
2022-10-05T02:19:08.514Z,11.23
2022-10-05T02:21:35.990Z,11.27
2022-10-05T02:24:11.055Z,11.26
2022-10-05T02:26:39.843Z,11.34
2022-10-05T02:29:10.840Z,11.36
2022-10-05T02:31:40.205Z,11.41
2022-10-05T02:34:29.437Z,11.51
2022-10-05T02:37:26.536Z,11.54
2022-10-05T02:40:15.277Z,11.62
2022-10-05T02:42:59.362Z,11.59
2022-10-05T02:45:40.927Z,11.65
2022-10-05T02:48:12.033Z,11.66
2022-10-05T02:50:49.393Z,11.66
2022-10-05T02:53:36.942Z,11.69
2022-10-05T02:56:30.346Z,11.65
2022-10-05T02:59:15.008Z,11.68
2022-10-05T03:01:55.320Z,11.63
2022-10-05T03:04:32.078Z,11.65
2022-10-05T03:07:08.122Z,11.66
2022-10-05T03:09:43.343Z,11.63
2022-10-05T03:12:43.840Z,11.59
2022-10-05T03:15:40.093Z,11.57
2022-10-05T03:18:31.002Z,11.58
2022-10-05T03:21:31.315Z,11.55
2022-10-05T03:24:16.678Z,11.55
2022-10-05T03:26:50.693Z,11.56
2022-10-05T03:29:28.738Z,11.57
2022-10-05T03:32:14.940Z,11.59
2022-10-05T03:34:56.540Z,11.54
2022-10-05T03:37:33.985Z,11.47
2022-10-05T03:40:18.773Z,11.43
2022-10-05T03:42:58.229Z,11.40
2022-10-05T03:45:41.439Z,11.42
2022-10-05T03:48:13.470Z,11.38
2022-10-05T03:50:45.908Z,11.38
2022-10-05T03:53:26.702Z,11.37
2022-10-05T03:56:05.992Z,11.42
2022-10-05T03:58:32.520Z,11.41
2022-10-05T04:01:04.907Z,11.44
2022-10-05T04:03:45.854Z,11.42
2022-10-05T04:06:25.596Z,11.39
2022-10-05T04:08:55.694Z,11.36
2022-10-05T04:11:29.745Z,11.31
2022-10-05T04:14:12.290Z,11.26
2022-10-05T04:16:49.616Z,11.14
2022-10-05T04:19:35.982Z,11.17
2022-10-05T04:22:21.244Z,11.07
2022-10-05T04:25:02.672Z,10.97
2022-10-05T04:27:38.591Z,10.95
2022-10-05T04:30:11.972Z,10.91
2022-10-05T04:32:44.264Z,10.88
2022-10-05T04:35:40.513Z,10.89
2022-10-05T04:38:25.855Z,10.91
2022-10-05T04:41:20.773Z,10.90
2022-10-05T04:44:29.847Z,10.89
2022-10-05T04:47:15.622Z,10.88
2022-10-05T04:49:55.088Z,10.79
2022-10-05T04:52:46.619Z,10.73
2022-10-05T04:55:46.116Z,10.62
2022-10-05T04:58:42.277Z,10.58
2022-10-05T05:01:44.125Z,10.48
2022-10-05T05:04:41.568Z,10.53
2022-10-05T05:07:36.098Z,10.56
2022-10-05T05:10:14.484Z,10.54
2022-10-05T05:12:50.079Z,10.56
2022-10-05T05:15:29.138Z,10.66
2022-10-05T05:18:28.598Z,10.71
2022-10-05T05:21:16.013Z,10.78
2022-10-05T05:23:54.893Z,10.83
2022-10-05T05:26:45.784Z,10.97
2022-10-05T05:29:37.253Z,11.06
2022-10-05T05:32:15.128Z,11.16
2022-10-05T05:35:06.244Z,11.21
2022-10-05T05:37:43.768Z,11.28
2022-10-05T05:40:35.521Z,11.38
2022-10-05T05:43:10.886Z,11.41
2022-10-05T05:45:41.753Z,11.43
2022-10-05T05:48:25.828Z,11.48
2022-10-05T05:51:14.198Z,11.57
2022-10-05T05:53:44.554Z,11.68
2022-10-05T05:56:20.283Z,11.78
2022-10-05T05:59:22.623Z,11.83
2022-10-05T06:01:56.071Z,11.87
2022-10-05T06:04:30.699Z,11.95
2022-10-05T06:07:01.775Z,12.03
2022-10-05T06:09:36.608Z,12.15
2022-10-05T06:12:22.051Z,12.46
2022-10-05T06:14:57.658Z,14.57
2022-10-05T06:17:29.618Z,15.98
2022-10-05T06:20:03.947Z,15.42
2022-10-05T06:22:38.108Z,14.68
2022-10-05T06:25:15.745Z,13.97
2022-10-05T06:28:13.159Z,13.62
2022-10-05T06:31:44.441Z,13.29
2022-10-05T06:34:30.374Z,13.17
2022-10-05T06:37:05.083Z,13.21
2022-10-05T06:39:55.458Z,13.15
2022-10-05T06:42:50.804Z,13.14
2022-10-05T06:45:55.683Z,13.21
2022-10-05T06:49:15.652Z,13.33
2022-10-05T06:52:35.115Z,13.38
2022-10-05T06:55:21.551Z,13.51
2022-10-05T06:58:21.742Z,13.60
2022-10-05T07:00:57.737Z,13.74
2022-10-05T07:03:41.967Z,13.86
2022-10-05T07:06:08.609Z,13.99
2022-10-05T07:08:41.799Z,14.04
2022-10-05T07:11:40.840Z,14.13
2022-10-05T07:14:21.785Z,14.11
2022-10-05T07:17:23.012Z,14.22
2022-10-05T07:20:15.023Z,14.32
2022-10-05T07:22:53.401Z,14.58
2022-10-05T07:25:32.139Z,14.80
2022-10-05T07:28:13.742Z,14.74
2022-10-05T07:30:55.550Z,14.71
2022-10-05T07:33:35.199Z,14.79
2022-10-05T07:36:30.905Z,14.92
2022-10-05T07:39:10.927Z,14.77
2022-10-05T07:41:45.356Z,14.93
2022-10-05T07:44:19.857Z,14.83
2022-10-05T07:46:56.050Z,14.97
2022-10-05T07:49:40.590Z,14.97
2022-10-05T07:52:25.441Z,15.01
2022-10-05T07:55:21.007Z,15.04
2022-10-05T07:58:05.170Z,15.04
2022-10-05T08:00:59.725Z,15.11
2022-10-05T08:03:43.971Z,15.36
2022-10-05T08:06:40.094Z,15.58
2022-10-05T08:09:51.271Z,15.75
2022-10-05T08:12:24.256Z,15.82
2022-10-05T08:15:02.600Z,15.84
2022-10-05T08:17:38.448Z,15.74
2022-10-05T08:20:26.685Z,15.78
2022-10-05T08:23:15.191Z,15.73
2022-10-05T08:26:00.221Z,15.85
2022-10-05T08:28:36.162Z,15.93
2022-10-05T08:31:26.060Z,15.98
2022-10-05T08:34:16.087Z,16.07
2022-10-05T08:36:54.056Z,16.11
2022-10-05T08:39:23.936Z,16.26
2022-10-05T08:42:08.713Z,16.38
2022-10-05T08:44:54.363Z,16.47
2022-10-05T08:47:58.242Z,16.58
2022-10-05T08:50:33.616Z,16.50
2022-10-05T08:53:26.681Z,16.52
2022-10-05T08:56:19.083Z,16.54
2022-10-05T08:59:04.438Z,16.63
2022-10-05T09:02:02.418Z,16.79
2022-10-05T09:04:42.365Z,16.82
2022-10-05T09:07:18.544Z,16.95
2022-10-05T09:09:56.253Z,17.05
2022-10-05T09:12:51.912Z,17.28
2022-10-05T09:16:02.499Z,17.52
2022-10-05T09:18:41.261Z,17.65
2022-10-05T09:21:28.923Z,17.70
2022-10-05T09:24:22.349Z,17.88
2022-10-05T09:26:59.676Z,18.11
2022-10-05T09:30:04.175Z,18.32
2022-10-05T09:32:51.484Z,18.28
2022-10-05T09:35:48.721Z,18.27
2022-10-05T09:38:15.391Z,18.15
2022-10-05T09:41:03.319Z,18.25
2022-10-05T09:44:12.930Z,18.13
2022-10-05T09:46:53.640Z,18.14
2022-10-05T09:49:50.744Z,18.01
2022-10-05T09:52:35.330Z,17.91
2022-10-05T09:55:30.266Z,18.01
2022-10-05T09:58:15.165Z,18.15
2022-10-05T10:01:03.767Z,18.27
2022-10-05T10:04:07.218Z,18.52
2022-10-05T10:06:55.402Z,18.73
2022-10-05T10:09:36.493Z,18.65
2022-10-05T10:12:32.464Z,18.84
2022-10-05T10:15:26.757Z,18.91
2022-10-05T10:18:35.439Z,18.84
2022-10-05T10:21:20.712Z,18.81
2022-10-05T10:23:54.396Z,19.01
2022-10-05T10:26:29.853Z,19.01
2022-10-05T10:29:33.783Z,19.06
2022-10-05T10:32:29.916Z,18.94
2022-10-05T10:35:14.581Z,18.78
2022-10-05T10:38:13.317Z,18.84
2022-10-05T10:41:11.151Z,18.88
2022-10-05T10:44:29.241Z,18.90
2022-10-05T10:47:30.056Z,18.97
2022-10-05T10:49:59.013Z,18.92
2022-10-05T10:52:43.575Z,18.88
2022-10-05T10:55:47.602Z,18.87
2022-10-05T10:58:27.727Z,19.01
2022-10-05T11:01:07.698Z,19.20
2022-10-05T11:03:55.029Z,19.36
2022-10-05T11:06:44.030Z,19.40
2022-10-05T11:09:25.624Z,19.40
2022-10-05T11:12:24.781Z,19.47
2022-10-05T11:15:12.579Z,19.62
2022-10-05T11:17:57.714Z,19.72
2022-10-05T11:20:44.394Z,19.77
2022-10-05T11:23:42.594Z,19.76
2022-10-05T11:26:57.240Z,19.84
2022-10-05T11:29:46.989Z,19.87
2022-10-05T11:32:49.519Z,19.76
2022-10-05T11:35:38.015Z,19.70
2022-10-05T11:38:19.720Z,19.65
2022-10-05T11:41:05.559Z,19.60
2022-10-05T11:43:34.762Z,19.65
2022-10-05T11:46:19.141Z,19.57
2022-10-05T11:49:13.329Z,19.41
2022-10-05T11:52:00.257Z,19.35
2022-10-05T11:55:15.357Z,19.37
2022-10-05T11:57:50.037Z,19.40
2022-10-05T12:00:20.312Z,19.40
2022-10-05T12:02:53.033Z,19.45
2022-10-05T12:05:23.959Z,19.43
2022-10-05T12:08:09.022Z,19.06
2022-10-05T12:11:07.956Z,19.08
2022-10-05T12:13:45.103Z,19.07
2022-10-05T12:16:28.063Z,19.15
2022-10-05T12:19:02.608Z,19.37
2022-10-05T12:21:48.123Z,19.69
2022-10-05T12:24:42.984Z,19.71
2022-10-05T12:27:24.784Z,19.59
2022-10-05T12:30:01.069Z,19.58
2022-10-05T12:32:39.514Z,19.43
2022-10-05T12:35:36.664Z,19.42
2022-10-05T12:38:17.414Z,19.38
2022-10-05T12:40:50.990Z,19.47
2022-10-05T12:43:23.735Z,19.45
2022-10-05T12:46:06.261Z,19.57
2022-10-05T12:48:57.596Z,19.61
2022-10-05T12:52:10.229Z,19.65
2022-10-05T12:54:50.060Z,19.62
2022-10-05T12:57:25.763Z,19.63
2022-10-05T13:00:12.045Z,19.62
2022-10-05T13:03:07.610Z,19.52
2022-10-05T13:06:00.303Z,19.48
2022-10-05T13:08:53.496Z,19.47
2022-10-05T13:11:31.933Z,19.40
2022-10-05T13:14:34.269Z,19.42
2022-10-05T13:17:23.558Z,19.45
2022-10-05T13:19:59.562Z,19.52
2022-10-05T13:22:29.008Z,19.42
2022-10-05T13:25:13.625Z,19.47
2022-10-05T13:27:44.989Z,19.53
2022-10-05T13:30:21.272Z,19.46
2022-10-05T13:33:25.815Z,19.73
2022-10-05T13:36:20.379Z,19.83
2022-10-05T13:38:57.725Z,19.93
2022-10-05T13:41:45.737Z,20.00
2022-10-05T13:44:33.831Z,20.02
2022-10-05T13:47:06.710Z,20.02
2022-10-05T13:49:55.315Z,19.91
2022-10-05T13:52:42.018Z,19.87
2022-10-05T13:55:21.429Z,19.85
2022-10-05T13:57:54.861Z,19.80
2022-10-05T14:00:26.630Z,19.69
2022-10-05T14:02:55.995Z,19.58
2022-10-05T14:05:24.243Z,19.57
2022-10-05T14:08:15.789Z,19.51
2022-10-05T14:10:45.633Z,19.41
2022-10-05T14:13:12.839Z,19.34
2022-10-05T14:15:55.105Z,19.27
2022-10-05T14:18:25.251Z,19.27
2022-10-05T14:21:01.889Z,19.33
2022-10-05T14:23:29.236Z,19.13
2022-10-05T14:25:58.217Z,19.25
2022-10-05T14:28:37.812Z,19.24
2022-10-05T14:31:15.662Z,19.27
2022-10-05T14:33:42.341Z,19.26
2022-10-05T14:36:17.479Z,19.30
2022-10-05T14:38:57.814Z,19.22
2022-10-05T14:41:27.710Z,19.18
2022-10-05T14:44:05.154Z,19.16
2022-10-05T14:46:34.191Z,19.06
2022-10-05T14:49:21.454Z,18.98
2022-10-05T14:51:49.392Z,18.95
2022-10-05T14:54:51.633Z,18.97
2022-10-05T14:57:24.526Z,18.92
2022-10-05T15:00:10.932Z,18.88
2022-10-05T15:02:52.599Z,18.86
2022-10-05T15:05:26.076Z,18.82
2022-10-05T15:08:11.079Z,18.80
2022-10-05T15:10:49.210Z,18.80
2022-10-05T15:13:22.996Z,18.85
2022-10-05T15:15:56.837Z,18.86
2022-10-05T15:18:37.663Z,18.81
2022-10-05T15:21:21.837Z,18.77
2022-10-05T15:23:54.496Z,18.77
2022-10-05T15:26:49.864Z,18.74
2022-10-05T15:30:00.330Z,18.72
2022-10-05T15:33:08.533Z,18.62
2022-10-05T15:35:43.809Z,18.57
2022-10-05T15:38:20.869Z,18.56
2022-10-05T15:41:09.355Z,18.58
2022-10-05T15:44:00.510Z,18.55
2022-10-05T15:46:54.828Z,18.54
2022-10-05T15:49:43.031Z,18.50
2022-10-05T15:52:29.385Z,18.37
2022-10-05T15:55:17.182Z,18.27
2022-10-05T15:57:47.632Z,18.15
2022-10-05T16:00:16.643Z,18.04
2022-10-05T16:02:53.082Z,18.01
2022-10-05T16:05:56.669Z,17.94
2022-10-05T16:08:50.378Z,17.78
2022-10-05T16:11:36.944Z,17.65
2022-10-05T16:14:09.191Z,17.62
2022-10-05T16:16:53.651Z,17.52
2022-10-05T16:19:40.088Z,17.48
2022-10-05T16:22:15.766Z,17.43
2022-10-05T16:25:27.966Z,17.36
2022-10-05T16:28:06.710Z,17.28
2022-10-05T16:30:57.947Z,17.27
2022-10-05T16:33:42.258Z,17.18
2022-10-05T16:36:24.876Z,17.12
2022-10-05T16:39:06.159Z,17.07
2022-10-05T16:41:47.218Z,17.00
2022-10-05T16:44:35.525Z,16.92
2022-10-05T16:47:27.472Z,16.81
2022-10-05T16:50:27.417Z,16.74
2022-10-05T16:53:02.626Z,16.72
2022-10-05T16:55:35.066Z,16.64
2022-10-05T16:58:18.430Z,16.61
2022-10-05T17:01:04.252Z,16.53
2022-10-05T17:04:00.005Z,16.50
2022-10-05T17:06:45.638Z,16.46
2022-10-05T17:09:29.172Z,16.39
2022-10-05T17:12:15.462Z,16.32
2022-10-05T17:15:08.282Z,16.25
2022-10-05T17:17:37.493Z,16.20
2022-10-05T17:20:22.990Z,16.15
2022-10-05T17:22:50.580Z,16.13
2022-10-05T17:26:05.169Z,16.08
2022-10-05T17:29:00.037Z,16.00
2022-10-05T17:31:30.498Z,15.95
2022-10-05T17:34:25.531Z,15.94
2022-10-05T17:37:34.607Z,15.86
2022-10-05T17:40:29.941Z,15.78
2022-10-05T17:43:04.066Z,15.76
2022-10-05T17:45:30.905Z,15.68
2022-10-05T17:48:03.451Z,15.66
2022-10-05T17:51:05.134Z,15.56
2022-10-05T17:54:03.335Z,15.45
2022-10-05T17:56:33.100Z,15.41
2022-10-05T17:59:03.528Z,15.36
2022-10-05T18:01:40.099Z,15.37
2022-10-05T18:04:12.648Z,15.33
2022-10-05T18:06:47.331Z,15.32
2022-10-05T18:09:16.236Z,15.32
2022-10-05T18:11:47.502Z,15.30
2022-10-05T18:14:24.437Z,15.26
2022-10-05T18:17:11.823Z,15.23
2022-10-05T18:19:38.934Z,15.23
2022-10-05T18:22:27.052Z,15.19
2022-10-05T18:25:07.136Z,15.20
2022-10-05T18:27:36.406Z,15.21
2022-10-05T18:30:19.334Z,15.19
2022-10-05T18:32:51.936Z,15.19
2022-10-05T18:35:27.761Z,15.19
2022-10-05T18:38:18.138Z,15.20
2022-10-05T18:40:58.680Z,15.19
2022-10-05T18:43:37.458Z,15.18
2022-10-05T18:46:09.016Z,15.14
2022-10-05T18:48:45.274Z,15.10
2022-10-05T18:51:19.785Z,15.13
2022-10-05T18:54:12.672Z,15.12
2022-10-05T18:56:48.078Z,15.11
2022-10-05T18:59:43.682Z,15.03
2022-10-05T19:02:30.256Z,15.02
2022-10-05T19:05:23.580Z,14.96
2022-10-05T19:08:08.051Z,14.94
2022-10-05T19:10:57.585Z,14.97
2022-10-05T19:13:30.816Z,14.88
2022-10-05T19:16:19.306Z,14.90
2022-10-05T19:19:03.768Z,14.91
2022-10-05T19:21:55.087Z,14.83
2022-10-05T19:24:36.869Z,14.78
2022-10-05T19:27:25.772Z,14.76
2022-10-05T19:30:11.514Z,14.72
2022-10-05T19:33:12.844Z,14.70
2022-10-05T19:36:08.004Z,14.71
2022-10-05T19:38:40.775Z,14.70
2022-10-05T19:41:12.856Z,14.65
2022-10-05T19:43:56.349Z,14.62
2022-10-05T19:46:47.447Z,14.59
2022-10-05T19:49:34.984Z,14.53
2022-10-05T19:52:02.718Z,14.52
2022-10-05T19:54:29.525Z,14.50
2022-10-05T19:56:57.764Z,14.48
2022-10-05T19:59:32.249Z,14.42
2022-10-05T20:01:59.245Z,14.39
2022-10-05T20:04:42.521Z,14.35
2022-10-05T20:07:16.446Z,14.33
2022-10-05T20:10:17.997Z,14.31
2022-10-05T20:12:56.896Z,14.25
2022-10-05T20:15:45.532Z,14.17
2022-10-05T20:18:57.058Z,14.12
2022-10-05T20:21:45.829Z,14.05
2022-10-05T20:24:24.983Z,14.00
2022-10-05T20:27:01.346Z,13.96
2022-10-05T20:29:30.102Z,13.90
2022-10-05T20:31:56.844Z,13.90
2022-10-05T20:34:23.926Z,13.88
2022-10-05T20:36:50.465Z,13.87
2022-10-05T20:39:18.432Z,13.88
2022-10-05T20:41:45.617Z,13.87
2022-10-05T20:44:12.750Z,13.87
2022-10-05T20:46:42.109Z,13.80
2022-10-05T20:49:12.406Z,13.79
2022-10-05T20:51:39.796Z,13.75
2022-10-05T20:54:07.267Z,13.69
2022-10-05T20:56:34.037Z,13.72
2022-10-05T20:59:00.457Z,13.80
2022-10-05T21:01:28.321Z,13.86
2022-10-05T21:03:55.403Z,13.85
2022-10-05T21:06:22.228Z,13.85
2022-10-05T21:08:50.671Z,13.76
2022-10-05T21:11:17.606Z,13.74
2022-10-05T21:13:45.081Z,13.69
2022-10-05T21:16:16.086Z,13.66
2022-10-05T21:18:44.689Z,13.70
2022-10-05T21:21:10.892Z,13.70
2022-10-05T21:23:37.071Z,13.72
2022-10-05T21:26:03.385Z,13.73
2022-10-05T21:28:30.713Z,13.75
2022-10-05T21:30:57.409Z,13.77
2022-10-05T21:33:23.852Z,13.78
2022-10-05T21:35:50.073Z,13.77
2022-10-05T21:38:16.235Z,13.73
2022-10-05T21:40:44.707Z,13.74
2022-10-05T21:43:11.080Z,13.70
2022-10-05T21:45:41.653Z,13.72
2022-10-05T21:48:08.625Z,13.73
2022-10-05T21:50:36.961Z,13.72
2022-10-05T21:53:06.629Z,13.70
2022-10-05T21:55:36.917Z,13.68
2022-10-05T21:58:03.572Z,13.68
2022-10-05T22:00:30.272Z,13.71
2022-10-05T22:02:56.424Z,13.73
2022-10-05T22:05:22.667Z,13.71
2022-10-05T22:07:51.075Z,13.75
2022-10-05T22:10:17.445Z,13.74
2022-10-05T22:12:46.409Z,13.77
2022-10-05T22:15:13.118Z,13.76
2022-10-05T22:17:39.642Z,13.79
2022-10-05T22:20:06.794Z,13.75
2022-10-05T22:22:33.181Z,13.77
2022-10-05T22:24:59.421Z,13.77
2022-10-05T22:27:28.316Z,13.78
2022-10-05T22:29:57.277Z,13.74
2022-10-05T22:32:23.925Z,13.73
2022-10-05T22:34:50.122Z,13.75
2022-10-05T22:37:16.468Z,13.73
2022-10-05T22:39:42.954Z,13.67
2022-10-05T22:42:09.305Z,13.66
2022-10-05T22:44:35.734Z,13.65
2022-10-05T22:47:03.331Z,13.64
2022-10-05T22:49:29.454Z,13.61
2022-10-05T22:51:56.703Z,13.53
2022-10-05T22:54:26.260Z,13.51
2022-10-05T22:56:54.956Z,13.46
2022-10-05T22:59:22.023Z,13.45
2022-10-05T23:01:48.174Z,13.42
2022-10-05T23:04:14.343Z,13.39
2022-10-05T23:06:42.002Z,13.35
2022-10-05T23:09:08.093Z,13.34
2022-10-05T23:11:34.717Z,13.35
2022-10-05T23:14:01.281Z,13.35
2022-10-05T23:16:28.257Z,13.32
2022-10-05T23:18:55.277Z,13.35
2022-10-05T23:21:23.817Z,13.34
2022-10-05T23:23:52.827Z,13.33
2022-10-05T23:26:21.143Z,13.35
2022-10-05T23:28:48.489Z,13.39
2022-10-05T23:31:17.128Z,13.40
2022-10-05T23:33:43.403Z,13.41
2022-10-05T23:36:19.035Z,13.34
2022-10-05T23:38:45.510Z,13.36
2022-10-05T23:41:12.709Z,13.36
2022-10-05T23:43:38.998Z,13.35
2022-10-05T23:46:06.921Z,13.37
2022-10-05T23:48:37.234Z,13.36
2022-10-05T23:51:10.076Z,13.37
2022-10-05T23:53:36.953Z,13.35
2022-10-05T23:56:03.633Z,13.30
2022-10-05T23:58:30.351Z,13.31
